Terminal Aerodrome Forecast
Issued by NWS

Home | Current Version | Previous Version | Text Only | Print | Product List | Glossary On
Versions: 1 2 3 4 5 6 7 8 9 10 11 12 13 14 15 16 17 18 19 20
000
FTUS44 KEPZ 191700
TAFTCS
TAF
KTCS 191723Z 1918/2018 VRB04KT P6SM SCT030
     FM191900 17007KT P6SM BKN040
     FM200300 31005KT P6SM SCT040 BKN250=

USA.gov is the U.S. government's official web portal to all federal, state and local government web resources and services.